Time;durP1;ratioP1;P1;durP2;ratioP2;P2;SDS_P1;SDS_P2;PMS_P1;PMS_P2;Temp;Humidity;BMP_temperature;BMP_pressure;BME280_temperature;BME280_humidity;BME280_pressure;Samples;Min_cycle;Max_cycle;Signal;HPM_P1;HPM_P2
2021/06/14 00:02:16;;;;;;;6.28;2.92;;;24.10;43.90;;;;;;6234492;27;81228;-67
2021/06/14 00:05:17;;;;;;;8.07;3.20;;;24.00;43.90;;;;;;6241577;27;80792;-64
2021/06/14 00:08:17;;;;;;;5.82;2.90;;;24.00;43.90;;;;;;6235549;27;82541;-64
2021/06/14 00:11:18;;;;;;;7.90;2.92;;;24.00;44.00;;;;;;6235199;27;80629;-64
2021/06/14 00:14:18;;;;;;;6.35;2.80;;;24.00;44.00;;;;;;6234312;27;83005;-63
2021/06/14 00:17:19;;;;;;;8.88;3.10;;;24.00;44.00;;;;;;6235135;27;80404;-63
2021/06/14 00:20:19;;;;;;;8.77;3.58;;;24.00;44.00;;;;;;6234492;27;81093;-63
2021/06/14 00:23:20;;;;;;;9.85;3.20;;;24.00;44.00;;;;;;6234833;27;80394;-64
2021/06/14 00:26:20;;;;;;;6.05;3.35;;;24.00;44.00;;;;;;6234577;27;80453;-63
2021/06/14 00:29:21;;;;;;;10.15;3.40;;;24.00;44.10;;;;;;6235956;27;80748;-63
2021/06/14 00:32:21;;;;;;;4.63;2.60;;;24.00;44.00;;;;;;6235377;27;81553;-63
2021/06/14 00:35:22;;;;;;;5.68;2.83;;;24.00;44.00;;;;;;6241628;27;80538;-63
2021/06/14 00:38:22;;;;;;;5.60;2.70;;;24.00;44.10;;;;;;6236969;27;81870;-63
2021/06/14 00:41:23;;;;;;;9.30;3.83;;;24.00;44.00;;;;;;6232644;27;83093;-63
2021/06/14 00:44:24;;;;;;;5.53;2.90;;;24.00;44.00;;;;;;6215915;27;82234;-63
2021/06/14 00:47:24;;;;;;;8.07;3.50;;;23.90;44.00;;;;;;6208522;28;83010;-63
2021/06/14 00:50:25;;;;;;;10.40;3.33;;;23.90;44.00;;;;;;6208141;27;81608;-64
2021/06/14 00:53:25;;;;;;;6.32;2.90;;;23.90;44.00;;;;;;6208680;27;83436;-64
2021/06/14 00:56:26;;;;;;;8.07;3.35;;;23.90;44.10;;;;;;6208084;28;82918;-63
2021/06/14 00:59:26;;;;;;;8.02;3.00;;;23.90;44.00;;;;;;6208932;27;82001;-63
2021/06/14 01:02:27;;;;;;;6.38;2.80;;;23.90;44.00;;;;;;6207561;28;83095;-64
2021/06/14 01:05:28;;;;;;;6.22;3.20;;;23.90;44.00;;;;;;6207682;27;85345;-66
2021/06/14 01:08:29;;;;;;;4.93;3.00;;;23.90;43.90;;;;;;6207617;27;84969;-65
2021/06/14 01:11:30;;;;;;;8.65;3.17;;;23.90;44.00;;;;;;6208344;27;82439;-65
2021/06/14 01:14:32;;;;;;;7.50;3.35;;;23.90;44.00;;;;;;6206115;27;83596;-63
2021/06/14 01:17:35;;;;;;;6.18;3.08;;;23.90;44.00;;;;;;6197653;27;81947;-64
2021/06/14 01:20:38;;;;;;;6.28;2.83;;;23.90;43.90;;;;;;6213555;27;84103;-63
2021/06/14 01:23:39;;;;;;;7.95;3.47;;;23.90;44.00;;;;;;6206624;27;83107;-63
2021/06/14 01:26:39;;;;;;;6.82;2.80;;;23.90;44.00;;;;;;6215198;27;81109;-64
2021/06/14 01:29:40;;;;;;;6.95;2.80;;;23.90;43.90;;;;;;6213496;27;80364;-63
2021/06/14 01:32:41;;;;;;;7.13;3.45;;;23.90;43.90;;;;;;6204591;27;80734;-63
2021/06/14 01:35:42;;;;;;;4.70;2.67;;;23.90;43.90;;;;;;6207819;27;83145;-63
2021/06/14 01:38:43;;;;;;;8.10;3.30;;;23.90;43.90;;;;;;6205930;27;82743;-64
2021/06/14 01:41:48;;;;;;;9.40;3.20;;;23.90;44.00;;;;;;6214212;27;83388;-63
2021/06/14 01:44:51;;;;;;;6.38;3.03;;;23.90;43.90;;;;;;6233879;27;80804;-63
2021/06/14 01:47:52;;;;;;;6.72;3.10;;;23.90;43.70;;;;;;6231138;27;80788;-64
2021/06/14 01:50:53;;;;;;;6.53;2.60;;;23.90;43.70;;;;;;6237037;27;82951;-64
2021/06/14 01:54:08;;;;;;;7.72;3.13;;;23.90;43.70;;;;;;6234239;27;82908;-63
2021/06/14 01:57:20;;;;;;;4.45;2.75;;;23.90;43.70;;;;;;6231687;27;81631;-63
2021/06/14 02:00:40;;;;;;;5.70;2.88;;;23.90;43.70;;;;;;6231038;27;82480;-63
2021/06/14 02:04:03;;;;;;;4.28;2.53;;;23.90;43.70;;;;;;6223246;27;81245;-64
2021/06/14 02:07:21;;;;;;;6.88;3.00;;;23.90;43.70;;;;;;6233904;27;83058;-63
2021/06/14 02:10:23;;;;;;;7.80;3.10;;;23.90;43.70;;;;;;6233599;27;83434;-63
2021/06/14 02:13:25;;;;;;;8.30;3.40;;;23.80;43.70;;;;;;6229583;27;83478;-62
2021/06/14 02:16:26;;;;;;;13.98;3.20;;;23.80;43.60;;;;;;6236116;27;82586;-63
2021/06/14 02:19:26;;;;;;;8.25;3.78;;;23.80;43.60;;;;;;6229637;27;82608;-63
2021/06/14 02:22:28;;;;;;;5.07;2.83;;;23.80;43.60;;;;;;6229848;27;82961;-63
2021/06/14 02:25:28;;;;;;;4.88;3.00;;;23.80;43.60;;;;;;6232947;27;80581;-64
2021/06/14 02:28:33;;;;;;;7.57;2.83;;;23.80;43.60;;;;;;6218264;28;83374;-64
2021/06/14 02:31:34;;;;;;;8.40;2.90;;;23.80;43.60;;;;;;6230852;27;82268;-64
2021/06/14 02:34:36;;;;;;;11.38;4.63;;;23.80;43.40;;;;;;6230530;27;83514;-64
2021/06/14 02:37:37;;;;;;;6.22;3.25;;;23.80;43.40;;;;;;6230798;27;80413;-63
2021/06/14 02:40:38;;;;;;;9.60;3.65;;;23.80;43.50;;;;;;6230907;27;82665;-63
2021/06/14 02:43:38;;;;;;;8.35;3.10;;;23.80;43.50;;;;;;6229779;27;82917;-63
2021/06/14 02:46:40;;;;;;;4.50;2.60;;;23.80;43.50;;;;;;6228639;27;83191;-64
2021/06/14 02:49:41;;;;;;;7.53;3.83;;;23.80;43.40;;;;;;6229705;27;82901;-63
2021/06/14 02:52:42;;;;;;;5.72;3.00;;;23.80;43.40;;;;;;6228912;28;81525;-63
2021/06/14 02:55:42;;;;;;;6.93;2.60;;;23.80;43.40;;;;;;6229645;27;83025;-63
2021/06/14 02:58:43;;;;;;;6.90;3.22;;;23.80;43.40;;;;;;6230926;27;80493;-63
2021/06/14 03:01:46;;;;;;;8.30;3.13;;;23.80;43.30;;;;;;6229228;27;80648;-63
2021/06/14 03:04:47;;;;;;;6.18;2.92;;;23.80;43.30;;;;;;6231418;28;80281;-64
2021/06/14 03:07:48;;;;;;;7.28;2.95;;;23.80;43.30;;;;;;6231826;27;83124;-63
2021/06/14 03:10:49;;;;;;;5.78;3.15;;;23.80;43.30;;;;;;6233807;28;80386;-63
2021/06/14 03:13:50;;;;;;;7.57;3.63;;;23.80;43.30;;;;;;6218719;27;83221;-63
2021/06/14 03:16:53;;;;;;;6.32;3.30;;;23.80;43.40;;;;;;6234291;27;81482;-63
2021/06/14 03:19:54;;;;;;;9.55;3.53;;;23.80;43.30;;;;;;6235342;27;83002;-63
2021/06/14 03:22:55;;;;;;;6.78;2.78;;;23.80;43.30;;;;;;6235459;27;80354;-63
2021/06/14 03:25:55;;;;;;;7.82;3.58;;;23.80;43.30;;;;;;6234100;27;82824;-63
2021/06/14 03:28:56;;;;;;;6.20;3.20;;;23.80;43.30;;;;;;6235393;27;80721;-63
2021/06/14 03:31:57;;;;;;;8.15;3.65;;;23.80;43.30;;;;;;6235296;27;80398;-63
2021/06/14 03:34:57;;;;;;;8.32;3.20;;;23.80;43.40;;;;;;6234650;27;80527;-63
2021/06/14 03:37:58;;;;;;;7.55;3.42;;;23.80;43.20;;;;;;6236058;27;80427;-65
2021/06/14 03:40:58;;;;;;;6.22;3.00;;;23.80;43.20;;;;;;6238291;27;81472;-65
2021/06/14 03:43:59;;;;;;;12.35;3.35;;;23.80;43.20;;;;;;6230833;27;80410;-62
2021/06/14 03:46:59;;;;;;;6.22;3.45;;;23.80;43.50;;;;;;6238419;27;81854;-64
2021/06/14 03:50:00;;;;;;;18.20;3.75;;;23.70;43.30;;;;;;6238509;27;80255;-63
2021/06/14 03:53:02;;;;;;;8.77;3.60;;;23.80;43.30;;;;;;6233153;27;80927;-64
2021/06/14 03:56:03;;;;;;;7.57;3.00;;;23.80;43.40;;;;;;6237263;27;83107;-63
2021/06/14 03:59:03;;;;;;;7.22;3.38;;;23.80;43.30;;;;;;6234167;27;80645;-64
2021/06/14 04:02:04;;;;;;;5.57;2.90;;;23.80;43.20;;;;;;6233056;27;80451;-63
2021/06/14 04:05:04;;;;;;;9.05;3.58;;;23.80;43.50;;;;;;6234862;27;80587;-64
2021/06/14 04:08:40;;;;;;;4.95;3.03;;;23.80;43.30;;;;;;6223768;27;85050;-64
2021/06/14 04:11:41;;;;;;;7.30;3.33;;;23.80;43.40;;;;;;6240757;27;80348;-65
2021/06/14 04:14:42;;;;;;;6.75;3.08;;;23.80;43.70;;;;;;6237262;27;80549;-62
2021/06/14 04:17:43;;;;;;;9.00;3.47;;;23.80;43.60;;;;;;6227298;27;80907;-63
2021/06/14 04:20:43;;;;;;;6.55;2.80;;;23.80;43.60;;;;;;6232806;27;80603;-62
2021/06/14 04:23:44;;;;;;;8.77;3.13;;;23.90;43.70;;;;;;6259658;27;80769;-63
2021/06/14 04:26:44;;;;;;;5.10;3.15;;;23.80;43.70;;;;;;6236638;28;80363;-66
2021/06/14 04:29:45;;;;;;;8.13;3.25;;;23.90;43.90;;;;;;6244184;27;82007;-67
2021/06/14 04:32:45;;;;;;;7.53;3.45;;;23.90;44.00;;;;;;6240657;27;83815;-63
2021/06/14 04:35:46;;;;;;;9.88;3.72;;;23.90;44.20;;;;;;6236254;27;80435;-64
2021/06/14 04:38:46;;;;;;;3.75;2.88;;;24.00;44.20;;;;;;6229800;27;81538;-64
2021/06/14 04:41:47;;;;;;;4.63;2.80;;;24.00;44.40;;;;;;6241625;27;80305;-65
2021/06/14 04:44:47;;;;;;;7.13;3.13;;;24.00;44.60;;;;;;6236249;27;80779;-63
2021/06/14 04:47:48;;;;;;;7.63;3.00;;;24.00;45.20;;;;;;6233331;27;81456;-63
2021/06/14 04:50:48;;;;;;;10.93;3.33;;;24.10;46.00;;;;;;6237368;27;80313;-64
2021/06/14 04:53:50;;;;;;;6.28;2.78;;;24.10;46.60;;;;;;6232570;27;80787;-64
2021/06/14 04:56:50;;;;;;;4.65;2.88;;;24.10;46.80;;;;;;6241834;27;80630;-63
2021/06/14 04:59:51;;;;;;;7.38;2.65;;;24.10;46.20;;;;;;6230560;27;80522;-63
2021/06/14 05:02:52;;;;;;;6.20;2.90;;;24.10;47.40;;;;;;6234698;27;80575;-63
2021/06/14 05:05:52;;;;;;;6.63;3.10;;;24.20;47.40;;;;;;6237454;27;81359;-64
2021/06/14 05:08:53;;;;;;;9.93;2.97;;;24.20;47.50;;;;;;6243086;27;80830;-64
2021/06/14 05:11:53;;;;;;;5.32;2.85;;;24.20;47.50;;;;;;6237328;27;82115;-65
2021/06/14 05:14:54;;;;;;;8.05;3.13;;;24.20;47.40;;;;;;6232780;28;81664;-65
2021/06/14 05:17:54;;;;;;;6.88;3.03;;;24.20;47.50;;;;;;6240640;27;80281;-65
2021/06/14 05:20:55;;;;;;;5.43;2.67;;;24.20;47.50;;;;;;6238328;27;83466;-64
2021/06/14 05:23:55;;;;;;;5.55;2.85;;;24.30;48.10;;;;;;6243856;27;80511;-64
2021/06/14 05:26:56;;;;;;;6.53;2.75;;;24.30;47.50;;;;;;6234553;27;81133;-64
2021/06/14 05:29:56;;;;;;;7.18;2.78;;;24.30;47.40;;;;;;6233989;27;83373;-64
2021/06/14 05:32:57;;;;;;;6.68;3.03;;;24.30;47.90;;;;;;6227018;27;81524;-63
2021/06/14 05:35:57;;;;;;;13.18;2.80;;;24.40;47.20;;;;;;6233251;27;80762;-63
2021/06/14 05:39:01;;;;;;;7.35;3.45;;;24.30;47.50;;;;;;6234162;27;80298;-63
2021/06/14 05:42:01;;;;;;;10.02;3.10;;;24.30;46.50;;;;;;6238312;27;81546;-64
2021/06/14 05:45:02;;;;;;;6.90;2.50;;;24.30;46.40;;;;;;6234156;27;80485;-64
2021/06/14 05:48:02;;;;;;;8.18;3.20;;;24.30;46.60;;;;;;6245612;28;80843;-62
2021/06/14 05:51:03;;;;;;;7.93;2.80;;;24.30;46.40;;;;;;6235264;27;80585;-62
2021/06/14 05:54:04;;;;;;;7.90;2.42;;;24.30;46.80;;;;;;6235381;28;80376;-63
2021/06/14 05:57:04;;;;;;;8.07;2.63;;;24.30;46.50;;;;;;6238865;27;80439;-66
2021/06/14 06:00:05;;;;;;;21.85;3.05;;;24.30;46.60;;;;;;6242810;27;81249;-64
2021/06/14 06:03:13;;;;;;;10.57;2.78;;;24.30;46.10;;;;;;6243086;27;80172;-64
2021/06/14 06:06:13;;;;;;;8.25;2.33;;;24.30;46.10;;;;;;6229544;27;81497;-63
2021/06/14 06:09:14;;;;;;;8.20;3.00;;;24.30;45.40;;;;;;6231782;27;80211;-63
2021/06/14 06:12:14;;;;;;;8.27;4.03;;;24.30;45.30;;;;;;6233246;27;80974;-63
2021/06/14 06:15:16;;;;;;;4.90;2.40;;;24.30;45.00;;;;;;6233531;27;80155;-64
2021/06/14 06:18:17;;;;;;;5.60;2.80;;;24.20;44.10;;;;;;6230182;27;83061;-64
2021/06/14 06:21:17;;;;;;;6.38;2.95;;;24.20;43.40;;;;;;6238839;27;81227;-64
2021/06/14 06:24:18;;;;;;;5.40;2.47;;;24.20;43.10;;;;;;6241663;27;80590;-64
2021/06/14 06:27:18;;;;;;;9.20;3.15;;;24.10;42.70;;;;;;6232649;27;80411;-65
2021/06/14 06:30:19;;;;;;;6.15;2.50;;;24.10;42.00;;;;;;6232986;27;80374;-64
2021/06/14 06:33:19;;;;;;;5.97;3.00;;;24.00;41.50;;;;;;6233302;27;80535;-64
2021/06/14 06:36:20;;;;;;;14.40;3.00;;;24.10;41.80;;;;;;6234710;27;81389;-64
2021/06/14 06:39:20;;;;;;;7.55;2.83;;;24.00;41.60;;;;;;6230219;27;83121;-64
2021/06/14 06:42:21;;;;;;;6.43;2.75;;;24.00;41.70;;;;;;6235598;27;80515;-64
2021/06/14 06:45:22;;;;;;;6.07;2.95;;;24.00;41.80;;;;;;6236295;27;81474;-63
2021/06/14 06:48:22;;;;;;;8.75;3.15;;;24.00;41.80;;;;;;6241244;27;81086;-64
2021/06/14 06:51:23;;;;;;;8.95;3.00;;;23.90;41.30;;;;;;6233350;27;81265;-64
2021/06/14 06:54:23;;;;;;;12.02;3.17;;;23.90;41.60;;;;;;6237951;27;80971;-63
2021/06/14 06:57:25;;;;;;;8.60;2.60;;;23.90;41.70;;;;;;6236361;27;80246;-64
2021/06/14 07:00:26;;;;;;;7.88;2.20;;;23.90;41.20;;;;;;6232319;27;81764;-65
2021/06/14 07:03:27;;;;;;;7.88;3.28;;;23.90;41.60;;;;;;6233465;27;81803;-64
2021/06/14 07:06:28;;;;;;;5.75;2.80;;;23.90;41.50;;;;;;6229626;28;80346;-63
2021/06/14 07:09:28;;;;;;;5.90;2.42;;;23.90;41.70;;;;;;6232306;27;82180;-63
2021/06/14 07:12:29;;;;;;;7.93;3.03;;;23.90;41.80;;;;;;6228344;27;81340;-63
2021/06/14 07:15:29;;;;;;;6.38;2.65;;;23.90;42.50;;;;;;6232974;27;80732;-64
2021/06/14 07:18:30;;;;;;;5.47;2.53;;;23.90;41.80;;;;;;6229247;27;81596;-63
2021/06/14 07:21:30;;;;;;;5.55;2.92;;;23.90;41.30;;;;;;6226947;27;83093;-63
2021/06/14 07:24:31;;;;;;;10.50;2.95;;;23.90;41.00;;;;;;6229184;28;80464;-63
2021/06/14 07:27:32;;;;;;;8.52;2.80;;;23.90;41.10;;;;;;6235447;27;82338;-63
2021/06/14 07:30:32;;;;;;;6.78;2.42;;;23.90;41.50;;;;;;6231172;27;80818;-64
2021/06/14 07:33:33;;;;;;;8.38;2.83;;;23.90;41.50;;;;;;6230921;27;80248;-63
2021/06/14 07:36:34;;;;;;;3.70;2.08;;;23.90;41.80;;;;;;6231106;28;81536;-63
2021/06/14 07:39:35;;;;;;;4.78;2.17;;;23.90;41.50;;;;;;6231059;27;80626;-62
2021/06/14 07:42:35;;;;;;;6.97;2.50;;;23.90;41.90;;;;;;6229144;27;80201;-62
2021/06/14 07:45:36;;;;;;;5.90;2.55;;;23.90;42.20;;;;;;6231388;27;80615;-63
2021/06/14 07:48:36;;;;;;;6.50;2.60;;;23.90;42.20;;;;;;6231061;28;80562;-63
2021/06/14 07:51:37;;;;;;;6.63;2.40;;;23.90;41.70;;;;;;6231955;27;81043;-62
2021/06/14 07:54:37;;;;;;;7.57;2.67;;;23.90;41.50;;;;;;6224952;28;81719;-63
2021/06/14 07:57:38;;;;;;;7.72;2.70;;;23.90;41.50;;;;;;6227301;27;80241;-63
2021/06/14 08:00:40;;;;;;;5.72;1.95;;;23.90;41.60;;;;;;6220724;28;81414;-63
2021/06/14 08:03:41;;;;;;;6.40;2.80;;;23.90;41.60;;;;;;6234570;27;80825;-64
2021/06/14 08:06:41;;;;;;;5.15;2.20;;;23.90;41.70;;;;;;6231231;27;81305;-62
2021/06/14 08:09:43;;;;;;;6.47;2.65;;;23.90;41.80;;;;;;6227502;28;80430;-64
2021/06/14 08:12:46;;;;;;;18.55;3.65;;;23.90;41.80;;;;;;6227887;27;81765;-63
2021/06/14 08:15:46;;;;;;;3.97;2.60;;;23.90;41.80;;;;;;6220867;27;80924;-63
2021/06/14 08:18:51;;;;;;;7.93;3.28;;;23.90;41.80;;;;;;6227324;27;82053;-64
2021/06/14 08:22:12;;;;;;;7.00;2.85;;;23.90;42.30;;;;;;6228557;28;81397;-63
2021/06/14 08:25:12;;;;;;;6.47;2.55;;;23.90;41.60;;;;;;6222247;28;86076;-65
2021/06/14 08:28:12;;;;;;;9.60;2.90;;;23.90;41.60;;;;;;6220480;28;84189;-65
2021/06/14 08:31:13;;;;;;;6.00;2.50;;;23.90;41.90;;;;;;6221099;27;81823;-64
2021/06/14 08:34:14;;;;;;;7.18;2.60;;;24.00;41.40;;;;;;6223304;28;80852;-64
2021/06/14 08:37:14;;;;;;;8.38;2.90;;;24.00;41.50;;;;;;6215053;28;82966;-64
2021/06/14 08:40:15;;;;;;;7.43;2.53;;;24.00;41.30;;;;;;6221063;27;81400;-64
2021/06/14 08:43:15;;;;;;;10.70;2.63;;;24.00;41.50;;;;;;6223482;27;80476;-63
2021/06/14 08:46:16;;;;;;;4.72;2.53;;;24.00;41.60;;;;;;6223816;27;80378;-63
2021/06/14 08:49:17;;;;;;;5.47;2.33;;;24.00;41.80;;;;;;6218701;27;81519;-64
2021/06/14 08:52:17;;;;;;;5.65;2.53;;;24.10;41.50;;;;;;6224515;27;81103;-64
2021/06/14 08:55:18;;;;;;;9.02;2.33;;;24.10;41.40;;;;;;6234713;27;81115;-64
2021/06/14 08:58:18;;;;;;;4.57;2.20;;;24.10;41.00;;;;;;6227376;28;81260;-64
2021/06/14 09:01:19;;;;;;;11.85;2.03;;;24.10;39.90;;;;;;6225088;27;80270;-63
2021/06/14 09:04:20;;;;;;;3.28;1.48;;;24.10;39.90;;;;;;6227799;27;83030;-64
2021/06/14 09:07:20;;;;;;;3.53;1.95;;;24.10;39.20;;;;;;6229457;27;81357;-64
2021/06/14 09:10:21;;;;;;;6.60;1.95;;;24.10;39.10;;;;;;6226216;27;83566;-63
2021/06/14 09:13:21;;;;;;;4.88;1.58;;;24.10;39.10;;;;;;6224170;28;80511;-65
2021/06/14 09:16:22;;;;;;;3.80;1.95;;;24.10;39.00;;;;;;6224081;27;82732;-63
2021/06/14 09:19:22;;;;;;;5.20;1.73;;;24.10;39.00;;;;;;6224129;27;81692;-64
2021/06/14 09:22:23;;;;;;;4.65;1.98;;;24.10;38.40;;;;;;6224220;27;80283;-62
2021/06/14 09:25:23;;;;;;;2.95;1.85;;;24.10;38.10;;;;;;6224868;27;81366;-64
2021/06/14 09:28:24;;;;;;;3.75;2.80;;;24.10;38.20;;;;;;6224763;28;81762;-64
2021/06/14 09:31:26;;;;;;;3.90;2.40;;;24.10;38.60;;;;;;6226587;27;80635;-63
2021/06/14 09:34:27;;;;;;;2.80;2.00;;;24.10;38.30;;;;;;6223210;27;85454;-63
2021/06/14 09:37:27;;;;;;;4.10;2.15;;;24.10;38.30;;;;;;6222374;27;80278;-63
2021/06/14 09:40:28;;;;;;;4.43;2.00;;;24.10;38.30;;;;;;6224315;27;81439;-63
2021/06/14 09:43:29;;;;;;;4.85;1.88;;;24.10;38.30;;;;;;6228029;27;81567;-64
2021/06/14 09:46:30;;;;;;;2.17;1.60;;;24.10;38.30;;;;;;6226315;27;80345;-65
2021/06/14 09:49:31;;;;;;;4.47;1.98;;;24.10;37.40;;;;;;6228454;27;81644;-65
2021/06/14 09:52:31;;;;;;;4.53;1.75;;;24.10;37.10;;;;;;6220418;28;81429;-65
2021/06/14 09:55:32;;;;;;;2.05;1.70;;;24.10;37.10;;;;;;6226144;27;81429;-64
2021/06/14 09:58:32;;;;;;;2.47;1.45;;;24.10;38.10;;;;;;6226757;27;80845;-64
2021/06/14 10:01:33;;;;;;;3.90;1.70;;;24.10;37.20;;;;;;6225514;27;81567;-63
2021/06/14 10:04:34;;;;;;;4.03;1.70;;;24.10;37.40;;;;;;6228231;27;80402;-64
2021/06/14 10:07:34;;;;;;;2.10;1.65;;;24.10;37.10;;;;;;6240453;27;81645;-65
2021/06/14 10:10:35;;;;;;;3.90;1.58;;;24.10;37.00;;;;;;6230343;27;80713;-64
2021/06/14 10:13:35;;;;;;;2.40;1.42;;;24.10;37.30;;;;;;6223273;27;81571;-64
2021/06/14 10:16:37;;;;;;;3.20;1.65;;;24.10;37.00;;;;;;6227428;27;80393;-64
2021/06/14 10:19:40;;;;;;;4.57;1.85;;;24.10;37.10;;;;;;6227470;27;81750;-64
2021/06/14 10:22:41;;;;;;;1.92;1.63;;;24.10;37.60;;;;;;6221485;27;80764;-64
2021/06/14 10:25:41;;;;;;;5.30;1.75;;;24.10;37.30;;;;;;6225767;27;81058;-65
2021/06/14 10:28:42;;;;;;;1.83;1.40;;;24.10;37.40;;;;;;6226135;28;83491;-65
2021/06/14 10:31:42;;;;;;;2.15;1.40;;;24.10;37.60;;;;;;6224393;28;81663;-65
2021/06/14 10:34:45;;;;;;;3.42;1.58;;;24.20;37.90;;;;;;6223475;27;83449;-64
2021/06/14 10:37:45;;;;;;;4.75;1.92;;;24.20;37.50;;;;;;6225111;27;80225;-65
2021/06/14 10:40:46;;;;;;;2.10;1.90;;;24.10;37.70;;;;;;6229718;28;81453;-64
2021/06/14 10:43:47;;;;;;;2.55;1.58;;;24.20;38.10;;;;;;6229595;27;81328;-64
2021/06/14 10:46:47;;;;;;;4.50;1.65;;;24.20;37.40;;;;;;6224487;27;80808;-64
2021/06/14 10:49:53;;;;;;;2.55;1.77;;;24.30;37.50;;;;;;6223554;27;81969;-65
2021/06/14 10:52:55;;;;;;;2.00;1.80;;;24.30;37.20;;;;;;6229809;28;80507;-64
2021/06/14 10:55:56;;;;;;;2.33;1.40;;;24.20;37.30;;;;;;6220139;28;81508;-64
2021/06/14 10:58:56;;;;;;;3.92;1.73;;;24.20;37.50;;;;;;6229971;27;81788;-64
2021/06/14 11:01:57;;;;;;;3.22;1.63;;;24.20;37.90;;;;;;6226489;28;83268;-64
2021/06/14 11:04:57;;;;;;;5.45;2.10;;;24.20;36.90;;;;;;6223616;28;80957;-63
2021/06/14 11:07:58;;;;;;;6.07;1.95;;;24.20;36.80;;;;;;6224063;27;81487;-63
2021/06/14 11:10:58;;;;;;;5.00;2.33;;;24.20;36.60;;;;;;6227475;27;80221;-65
2021/06/14 11:13:59;;;;;;;2.72;1.90;;;24.20;36.50;;;;;;6226896;27;80749;-63
2021/06/14 11:17:00;;;;;;;2.38;1.60;;;24.20;36.60;;;;;;6227845;28;81834;-63
2021/06/14 11:20:00;;;;;;;2.25;1.60;;;24.20;36.70;;;;;;6224857;28;80701;-63
2021/06/14 11:23:01;;;;;;;2.83;1.70;;;24.20;37.10;;;;;;6228367;27;80800;-63
2021/06/14 11:26:01;;;;;;;3.78;1.45;;;24.20;36.40;;;;;;6225857;28;81606;-63
2021/06/14 11:29:02;;;;;;;4.50;2.28;;;24.10;36.30;;;;;;6229222;28;83701;-63
2021/06/14 11:32:02;;;;;;;4.65;2.40;;;24.10;36.50;;;;;;6230681;27;80332;-64
2021/06/14 11:35:03;;;;;;;5.10;1.80;;;24.10;36.60;;;;;;6232477;27;80715;-63
2021/06/14 11:38:03;;;;;;;4.15;2.42;;;24.20;36.70;;;;;;6230047;27;81243;-63
2021/06/14 11:41:04;;;;;;;3.08;2.00;;;24.30;36.30;;;;;;6229281;27;80436;-62
2021/06/14 11:44:04;;;;;;;3.08;2.00;;;24.30;36.50;;;;;;6232551;28;80818;-63
2021/06/14 11:47:05;;;;;;;5.70;1.70;;;24.30;36.60;;;;;;6233348;27;80970;-63
2021/06/14 11:50:07;;;;;;;3.47;1.77;;;24.30;36.70;;;;;;6232321;27;81221;-64
2021/06/14 11:53:09;;;;;;;3.97;2.17;;;24.20;36.70;;;;;;6229605;28;80601;-63
2021/06/14 11:56:09;;;;;;;4.25;2.10;;;24.20;36.50;;;;;;6231364;28;80462;-63
2021/06/14 11:59:10;;;;;;;4.22;1.80;;;24.20;36.90;;;;;;6232174;27;80776;-63
2021/06/14 12:02:11;;;;;;;3.83;1.90;;;24.20;37.10;;;;;;6229738;27;80488;-63
2021/06/14 12:05:13;;;;;;;3.55;1.77;;;24.20;37.70;;;;;;6226542;27;81298;-63
2021/06/14 12:08:13;;;;;;;2.33;1.55;;;24.20;37.10;;;;;;6225274;27;80832;-64
2021/06/14 12:11:14;;;;;;;3.00;1.88;;;24.20;37.00;;;;;;6222242;27;81337;-64
2021/06/14 12:14:14;;;;;;;3.42;1.70;;;24.20;37.20;;;;;;6220568;27;80316;-63
2021/06/14 12:17:15;;;;;;;2.92;1.83;;;24.30;36.70;;;;;;6232842;27;80906;-64
2021/06/14 12:20:15;;;;;;;4.95;2.22;;;24.20;36.60;;;;;;6230609;27;80971;-64
2021/06/14 12:23:16;;;;;;;6.13;1.83;;;24.20;36.70;;;;;;6229989;27;81580;-64
2021/06/14 12:26:16;;;;;;;6.68;1.90;;;24.20;37.00;;;;;;6225279;27;80556;-64
2021/06/14 12:29:17;;;;;;;2.55;1.65;;;24.20;37.30;;;;;;6220847;27;82382;-62
2021/06/14 12:32:17;;;;;;;6.45;1.83;;;24.20;36.80;;;;;;6233128;27;80414;-64
2021/06/14 12:35:18;;;;;;;3.35;2.00;;;24.20;36.70;;;;;;6235695;27;80329;-63
2021/06/14 12:38:18;;;;;;;2.83;1.88;;;24.20;36.60;;;;;;6233086;27;80342;-64
2021/06/14 12:41:19;;;;;;;3.60;1.83;;;24.30;36.70;;;;;;6241709;27;80336;-63
2021/06/14 12:44:20;;;;;;;3.55;1.90;;;24.20;37.10;;;;;;6229338;27;80736;-63
2021/06/14 12:47:20;;;;;;;6.53;2.28;;;24.20;37.70;;;;;;6233118;27;81172;-63
2021/06/14 12:50:21;;;;;;;3.05;1.80;;;24.20;38.00;;;;;;6233211;27;80837;-64
2021/06/14 12:53:22;;;;;;;3.42;2.22;;;24.20;37.70;;;;;;6235066;27;80843;-64
2021/06/14 12:56:23;;;;;;;3.60;2.45;;;24.20;37.80;;;;;;6234518;27;80874;-63
2021/06/14 12:59:24;;;;;;;6.70;2.30;;;24.20;37.30;;;;;;6235113;27;81741;-63
2021/06/14 13:02:24;;;;;;;6.38;2.05;;;24.10;37.50;;;;;;6230304;27;81961;-63
2021/06/14 13:05:25;;;;;;;7.07;2.00;;;24.20;37.50;;;;;;6233953;28;81015;-64
2021/06/14 13:08:25;;;;;;;3.72;2.10;;;24.20;38.00;;;;;;6225797;27;80639;-64
2021/06/14 13:11:26;;;;;;;6.68;1.98;;;24.20;38.40;;;;;;6232436;27;80340;-64
2021/06/14 13:14:26;;;;;;;6.30;1.73;;;24.20;38.90;;;;;;6231734;27;80912;-64
2021/06/14 13:17:27;;;;;;;3.55;2.05;;;24.20;39.10;;;;;;6231224;27;80422;-64
2021/06/14 13:20:32;;;;;;;7.68;2.20;;;24.20;38.80;;;;;;6231560;28;80652;-66
2021/06/14 13:23:33;;;;;;;4.30;2.10;;;24.30;39.40;;;;;;6231290;27;80659;-66
2021/06/14 13:26:33;;;;;;;4.43;1.90;;;24.30;39.40;;;;;;6228197;28;81026;-66
2021/06/14 13:29:35;;;;;;;3.17;1.95;;;24.40;39.80;;;;;;6229342;27;81125;-66
2021/06/14 13:32:46;;;;;;;5.70;2.38;;;24.40;39.90;;;;;;6225723;28;80481;-66
2021/06/14 13:35:46;;;;;;;6.20;1.75;;;24.40;39.90;;;;;;6224352;27;80961;-67
2021/06/14 13:38:47;;;;;;;3.25;1.70;;;24.40;39.90;;;;;;6225007;27;83308;-66
2021/06/14 13:41:48;;;;;;;4.38;1.67;;;24.40;40.10;;;;;;6231574;27;82062;-66
2021/06/14 13:44:48;;;;;;;5.28;2.08;;;24.50;40.20;;;;;;6228628;28;81626;-67
2021/06/14 13:47:49;;;;;;;4.97;2.40;;;24.40;40.90;;;;;;6229459;27;81967;-66
2021/06/14 13:50:50;;;;;;;4.32;2.15;;;24.50;40.10;;;;;;6227792;27;80499;-67
2021/06/14 13:53:51;;;;;;;2.22;1.83;;;24.50;40.20;;;;;;6227909;27;81311;-65
2021/06/14 13:56:51;;;;;;;2.85;1.80;;;24.50;40.40;;;;;;6231121;27;80833;-67
2021/06/14 13:59:52;;;;;;;3.45;1.88;;;24.50;40.10;;;;;;6228843;28;82814;-67
2021/06/14 14:02:53;;;;;;;2.17;1.98;;;24.50;40.00;;;;;;6230397;27;80709;-67
2021/06/14 14:05:53;;;;;;;1.90;1.30;;;24.50;39.80;;;;;;6227761;27;80883;-66
2021/06/14 14:08:56;;;;;;;3.50;1.60;;;24.50;39.80;;;;;;6226861;27;83282;-66
2021/06/14 14:11:57;;;;;;;4.18;2.15;;;24.50;40.70;;;;;;6226450;27;80377;-67
2021/06/14 14:14:57;;;;;;;8.35;2.40;;;24.50;40.60;;;;;;6230309;27;81267;-67
2021/06/14 14:17:58;;;;;;;1.75;1.50;;;24.50;40.20;;;;;;6231627;27;81067;-67
2021/06/14 14:20:58;;;;;;;4.35;1.67;;;24.50;39.90;;;;;;6239551;28;80911;-67
2021/06/14 14:24:03;;;;;;;4.68;1.80;;;24.50;40.40;;;;;;6234241;27;80253;-67
2021/06/14 14:27:03;;;;;;;5.22;1.50;;;24.50;40.00;;;;;;6231686;27;81504;-65
2021/06/14 14:30:04;;;;;;;5.55;1.95;;;24.50;40.00;;;;;;6240275;27;82036;-65
2021/06/14 14:33:04;;;;;;;3.67;1.90;;;24.50;40.30;;;;;;6231856;27;81807;-65
2021/06/14 14:36:05;;;;;;;2.67;1.70;;;24.50;39.60;;;;;;6230835;27;81628;-66
2021/06/14 14:39:07;;;;;;;4.93;1.60;;;24.50;40.00;;;;;;6230234;27;82731;-66
2021/06/14 14:42:08;;;;;;;4.25;1.98;;;24.50;39.80;;;;;;6230631;27;81586;-66
2021/06/14 14:45:09;;;;;;;3.78;1.70;;;24.50;39.80;;;;;;6229593;27;80231;-68
2021/06/14 14:48:09;;;;;;;2.45;1.77;;;24.50;39.70;;;;;;6230463;27;82176;-66
2021/06/14 14:51:10;;;;;;;2.95;1.67;;;24.50;39.80;;;;;;6226946;27;83355;-66
2021/06/14 14:54:10;;;;;;;4.07;1.52;;;24.50;40.60;;;;;;6231688;27;80498;-66
2021/06/14 14:57:11;;;;;;;5.70;2.00;;;24.50;40.40;;;;;;6237372;27;80349;-64
2021/06/14 15:00:11;;;;;;;3.67;1.80;;;24.50;40.50;;;;;;6239215;27;80473;-66
2021/06/14 15:03:12;;;;;;;4.78;2.25;;;24.40;40.50;;;;;;6224796;28;80437;-67
2021/06/14 15:06:12;;;;;;;8.70;1.90;;;24.50;40.90;;;;;;6233404;27;83938;-68
2021/06/14 15:09:13;;;;;;;9.32;2.10;;;24.50;40.50;;;;;;6235827;27;80533;-66
2021/06/14 15:12:14;;;;;;;4.25;2.10;;;24.50;40.60;;;;;;6235480;27;80272;-66
2021/06/14 15:15:14;;;;;;;4.90;2.08;;;24.50;40.60;;;;;;6235927;27;80183;-66
2021/06/14 15:18:15;;;;;;;3.65;1.60;;;24.50;40.50;;;;;;6241233;27;81004;-65
2021/06/14 15:21:15;;;;;;;4.60;1.92;;;24.50;40.30;;;;;;6235879;27;80957;-66
2021/06/14 15:24:16;;;;;;;5.80;1.90;;;24.50;40.40;;;;;;6230421;27;80695;-66
2021/06/14 15:27:17;;;;;;;2.17;1.65;;;24.50;40.60;;;;;;6234382;27;81019;-66
2021/06/14 15:30:17;;;;;;;4.95;1.73;;;24.40;40.20;;;;;;6233596;27;83349;-67
2021/06/14 15:33:18;;;;;;;5.10;2.10;;;24.50;40.60;;;;;;6232555;27;80859;-66
2021/06/14 15:36:19;;;;;;;3.33;1.85;;;24.40;40.30;;;;;;6233807;27;82083;-66
2021/06/14 15:39:19;;;;;;;4.43;1.73;;;24.40;40.10;;;;;;6233749;27;80482;-67
2021/06/14 15:42:20;;;;;;;3.40;1.55;;;24.40;40.30;;;;;;6242560;27;82982;-66